Time;durP1;ratioP1;P1;durP2;ratioP2;P2;SDS_P1;SDS_P2;PMS_P1;PMS_P2;Temp;Humidity;BMP_temperature;BMP_pressure;BME280_temperature;BME280_humidity;BME280_pressure;Samples;Min_cycle;Max_cycle;Signal;HPM_P1;HPM_P2
2023/07/20 00:00:31;;;;;;;7.43;3.47;;;18.60;99.90;;;;;;5134553;28;20631;-80
2023/07/20 00:03:12;;;;;;;5.73;3.20;;;18.60;99.90;;;;;;5124582;28;20660;-80
2023/07/20 00:05:40;;;;;;;7.10;3.60;;;18.60;99.90;;;;;;5113744;28;20718;-80
2023/07/20 00:08:09;;;;;;;5.40;3.50;;;18.50;99.90;;;;;;5113935;28;20210;-80
2023/07/20 00:10:38;;;;;;;8.17;3.70;;;18.50;99.90;;;;;;5121716;28;20206;-80
2023/07/20 00:13:06;;;;;;;8.37;4.20;;;18.50;99.90;;;;;;5132217;28;20202;-80
2023/07/20 00:15:35;;;;;;;7.60;4.00;;;18.50;99.90;;;;;;5135056;28;20209;-80
2023/07/20 00:18:03;;;;;;;6.53;3.70;;;18.50;99.90;;;;;;5138003;28;20282;-78
2023/07/20 00:20:31;;;;;;;9.07;3.93;;;18.50;99.90;;;;;;5134008;28;20703;-79
2023/07/20 00:22:59;;;;;;;8.53;3.97;;;18.50;99.90;;;;;;5113439;28;20222;-79
2023/07/20 00:25:28;;;;;;;5.47;4.20;;;18.40;99.90;;;;;;5114201;28;20206;-79
2023/07/20 00:27:57;;;;;;;6.93;4.23;;;18.30;99.90;;;;;;5117616;28;20726;-79
2023/07/20 00:30:25;;;;;;;8.77;4.30;;;18.20;99.90;;;;;;5112636;28;20291;-78
2023/07/20 00:32:54;;;;;;;7.37;3.80;;;18.10;99.90;;;;;;5112123;28;20288;-78
2023/07/20 00:35:22;;;;;;;7.10;4.07;;;18.10;99.90;;;;;;5112756;28;20634;-79
2023/07/20 00:37:50;;;;;;;6.70;4.07;;;18.10;99.90;;;;;;5112221;28;20273;-78
2023/07/20 00:40:18;;;;;;;7.60;4.07;;;18.20;99.90;;;;;;5112135;28;20603;-79
2023/07/20 00:42:47;;;;;;;7.53;3.60;;;18.10;99.90;;;;;;5112489;28;20620;-79
2023/07/20 00:45:16;;;;;;;8.63;4.30;;;18.20;99.90;;;;;;5112670;28;20708;-79
2023/07/20 00:47:45;;;;;;;6.93;4.20;;;18.20;99.90;;;;;;5112183;28;20198;-79
2023/07/20 00:50:13;;;;;;;6.77;3.80;;;18.20;99.90;;;;;;5113119;28;20220;-79
2023/07/20 00:52:42;;;;;;;9.10;4.20;;;18.10;99.90;;;;;;5112976;28;20206;-79
2023/07/20 00:55:11;;;;;;;10.23;4.03;;;18.10;99.90;;;;;;5115759;28;20210;-78
2023/07/20 00:57:39;;;;;;;9.03;4.50;;;18.10;99.90;;;;;;5133431;28;20263;-79
2023/07/20 01:00:08;;;;;;;6.40;3.83;;;18.10;99.90;;;;;;5133036;28;20647;-79
2023/07/20 01:02:38;;;;;;;10.07;3.87;;;18.10;99.90;;;;;;5132356;28;20262;-79
2023/07/20 01:05:08;;;;;;;8.13;3.87;;;18.10;99.90;;;;;;5132236;28;20209;-79
2023/07/20 01:07:43;;;;;;;6.40;3.33;;;18.10;99.90;;;;;;5133355;27;20194;-78
2023/07/20 01:10:17;;;;;;;7.57;4.00;;;18.20;99.90;;;;;;5136087;27;20208;-78
2023/07/20 01:12:49;;;;;;;7.37;3.50;;;18.20;99.90;;;;;;5135628;27;20207;-79
2023/07/20 01:15:17;;;;;;;5.30;3.97;;;18.10;99.90;;;;;;5136672;27;20691;-79
2023/07/20 01:17:46;;;;;;;6.10;3.53;;;18.10;99.90;;;;;;5136794;27;20672;-80
2023/07/20 01:20:17;;;;;;;5.33;3.57;;;18.10;99.90;;;;;;5136938;27;20284;-79
2023/07/20 01:23:22;;;;;;;7.63;3.90;;;18.10;99.90;;;;;;5117175;27;20275;-79
2023/07/20 01:26:07;;;;;;;8.87;3.60;;;18.10;99.90;;;;;;5100259;28;20270;-78
2023/07/20 01:29:07;;;;;;;7.33;3.80;;;18.10;99.90;;;;;;5117015;28;20263;-79
2023/07/20 01:31:38;;;;;;;5.70;3.60;;;18.10;99.90;;;;;;5117296;27;20670;-78
2023/07/20 01:34:08;;;;;;;7.27;3.77;;;18.10;99.90;;;;;;5136153;27;20189;-79
2023/07/20 01:36:38;;;;;;;7.53;3.60;;;18.10;99.90;;;;;;5137156;27;20234;-78
2023/07/20 01:39:09;;;;;;;8.43;4.00;;;18.20;99.90;;;;;;5135703;27;20282;-79
2023/07/20 01:41:37;;;;;;;7.50;3.50;;;18.20;99.90;;;;;;5136562;27;20354;-80
2023/07/20 01:44:05;;;;;;;7.23;3.60;;;18.20;99.90;;;;;;5139691;27;20205;-80
2023/07/20 01:46:34;;;;;;;8.67;4.10;;;18.20;99.90;;;;;;5153797;27;20201;-78
2023/07/20 01:49:03;;;;;;;6.97;3.70;;;18.20;99.90;;;;;;5154417;27;20216;-79
2023/07/20 01:51:32;;;;;;;4.87;3.20;;;18.20;99.90;;;;;;5157268;27;20209;-79
2023/07/20 01:54:00;;;;;;;6.53;3.50;;;18.20;99.90;;;;;;5152844;27;20205;-79
2023/07/20 01:56:28;;;;;;;8.07;3.70;;;18.20;99.90;;;;;;5155261;27;20205;-81
2023/07/20 01:58:57;;;;;;;6.40;3.40;;;18.20;99.90;;;;;;5156270;27;20205;-79
2023/07/20 02:01:25;;;;;;;7.63;3.40;;;18.20;99.90;;;;;;5157407;27;20197;-80
2023/07/20 02:03:53;;;;;;;5.53;3.53;;;18.20;99.90;;;;;;5155882;27;20217;-80
2023/07/20 02:06:23;;;;;;;5.57;3.20;;;18.20;99.90;;;;;;5156151;27;20209;-80
2023/07/20 02:08:52;;;;;;;4.43;3.37;;;18.20;99.90;;;;;;5139196;27;20210;-79
2023/07/20 02:11:20;;;;;;;7.53;3.90;;;18.20;99.90;;;;;;5137273;28;20198;-79
2023/07/20 02:13:48;;;;;;;7.17;3.20;;;18.20;99.90;;;;;;5132672;27;20210;-79
2023/07/20 02:16:17;;;;;;;6.83;3.50;;;18.20;99.90;;;;;;5158565;27;20238;-80
2023/07/20 02:18:45;;;;;;;5.53;3.50;;;18.20;99.90;;;;;;5154543;27;20262;-80
2023/07/20 02:21:13;;;;;;;5.20;3.23;;;18.10;99.90;;;;;;5147878;27;20228;-81
2023/07/20 02:23:42;;;;;;;7.90;3.30;;;18.10;99.90;;;;;;5154778;27;20225;-80
2023/07/20 02:26:11;;;;;;;5.90;3.37;;;18.20;99.90;;;;;;5156394;27;20205;-80
2023/07/20 02:28:39;;;;;;;8.10;3.03;;;18.20;99.90;;;;;;5156206;27;20205;-80
2023/07/20 02:31:07;;;;;;;8.77;3.23;;;18.20;99.90;;;;;;5155503;27;20217;-80
2023/07/20 02:33:35;;;;;;;7.50;3.40;;;18.20;99.90;;;;;;5156163;27;20232;-79
2023/07/20 02:36:03;;;;;;;5.83;3.20;;;18.20;99.90;;;;;;5155934;27;20240;-79
2023/07/20 02:38:32;;;;;;;5.17;3.00;;;18.20;99.90;;;;;;5157132;27;20229;-78
2023/07/20 02:41:02;;;;;;;8.30;3.30;;;18.30;99.90;;;;;;5156683;27;20202;-79
2023/07/20 02:43:30;;;;;;;5.70;2.97;;;18.30;99.90;;;;;;5158087;27;20194;-79
2023/07/20 02:45:58;;;;;;;4.77;2.80;;;18.30;99.90;;;;;;5155133;27;20189;-81
2023/07/20 02:48:27;;;;;;;4.70;3.17;;;18.30;99.90;;;;;;5153051;27;20202;-80
2023/07/20 02:50:55;;;;;;;5.50;2.83;;;18.40;99.90;;;;;;5147224;27;20235;-80
2023/07/20 02:53:23;;;;;;;4.47;2.67;;;18.40;99.90;;;;;;5154065;27;20201;-79
2023/07/20 02:55:51;;;;;;;3.93;2.77;;;18.40;99.90;;;;;;5154362;27;20201;-79
2023/07/20 02:58:20;;;;;;;6.30;3.00;;;18.40;99.90;;;;;;5154926;27;20224;-80
2023/07/20 03:00:48;;;;;;;7.20;2.60;;;18.40;99.90;;;;;;5156055;27;20209;-80
2023/07/20 03:03:17;;;;;;;5.17;2.77;;;18.40;99.90;;;;;;5154439;27;20210;-81
2023/07/20 03:05:45;;;;;;;4.23;2.97;;;18.40;99.90;;;;;;5136969;27;20210;-80
2023/07/20 03:08:13;;;;;;;5.33;2.57;;;18.40;99.90;;;;;;5154837;27;20225;-79
2023/07/20 03:10:42;;;;;;;6.20;2.67;;;18.40;99.90;;;;;;5153401;27;20205;-81
2023/07/20 03:13:10;;;;;;;3.50;2.53;;;18.40;99.90;;;;;;5146810;27;20201;-80
2023/07/20 03:15:39;;;;;;;3.43;2.17;;;18.40;99.90;;;;;;5150949;27;20206;-80
2023/07/20 03:18:08;;;;;;;4.57;2.43;;;18.30;99.90;;;;;;5131775;28;20240;-80
2023/07/20 03:20:37;;;;;;;4.30;2.60;;;18.40;99.90;;;;;;5131586;27;20293;-80
2023/07/20 03:23:05;;;;;;;4.77;2.50;;;18.40;99.90;;;;;;5140549;27;20243;-79
2023/07/20 03:25:33;;;;;;;4.47;2.40;;;18.40;99.90;;;;;;5147242;27;20232;-79
2023/07/20 03:28:01;;;;;;;5.80;2.13;;;18.40;99.90;;;;;;5156909;27;20239;-79
2023/07/20 03:30:30;;;;;;;5.77;2.40;;;18.30;99.90;;;;;;5157564;27;20213;-78
2023/07/20 03:32:59;;;;;;;8.27;2.50;;;18.30;99.90;;;;;;5137471;28;20213;-79
2023/07/20 03:35:28;;;;;;;5.70;2.30;;;18.30;99.90;;;;;;5136267;27;20209;-79
2023/07/20 03:37:56;;;;;;;5.27;2.40;;;18.30;99.90;;;;;;5149685;27;20221;-79
2023/07/20 03:40:24;;;;;;;5.13;2.40;;;18.30;99.90;;;;;;5149792;27;20277;-78
2023/07/20 03:42:53;;;;;;;3.00;2.20;;;18.30;99.90;;;;;;5128852;28;20206;-80
2023/07/20 03:45:23;;;;;;;4.97;2.47;;;18.30;99.90;;;;;;5120517;28;20221;-79
2023/07/20 03:47:51;;;;;;;5.80;2.17;;;18.30;99.90;;;;;;5116395;28;20297;-79
2023/07/20 03:50:21;;;;;;;3.53;2.20;;;18.30;99.90;;;;;;5123006;28;20704;-80
2023/07/20 03:52:49;;;;;;;4.33;2.03;;;18.30;99.90;;;;;;5121521;28;20304;-79
2023/07/20 03:55:17;;;;;;;5.77;2.23;;;18.30;99.90;;;;;;5124578;28;20252;-82
2023/07/20 03:57:46;;;;;;;7.47;2.37;;;18.30;99.90;;;;;;5125288;28;20282;-79
2023/07/20 04:00:16;;;;;;;6.03;2.60;;;18.40;99.90;;;;;;5114690;28;20696;-79
2023/07/20 04:02:44;;;;;;;7.83;2.20;;;18.40;99.90;;;;;;5115595;28;20241;-80
2023/07/20 04:05:12;;;;;;;4.50;2.20;;;18.40;99.90;;;;;;5123305;28;20209;-80
2023/07/20 04:07:42;;;;;;;5.20;2.20;;;18.40;99.90;;;;;;5136200;28;20214;-80
2023/07/20 04:10:11;;;;;;;3.53;2.00;;;18.40;99.90;;;;;;5136308;28;20205;-78
2023/07/20 04:12:39;;;;;;;3.13;1.93;;;18.30;99.90;;;;;;5135652;28;20201;-79
2023/07/20 04:15:09;;;;;;;5.93;2.10;;;18.40;99.90;;;;;;5133422;28;20205;-80
2023/07/20 04:17:37;;;;;;;4.53;1.87;;;18.40;99.90;;;;;;5136433;28;20198;-80
2023/07/20 04:20:06;;;;;;;3.83;1.80;;;18.40;99.90;;;;;;5141189;27;20273;-79
2023/07/20 04:22:35;;;;;;;2.47;1.80;;;18.40;99.90;;;;;;5137706;28;20214;-79
2023/07/20 04:25:05;;;;;;;4.33;2.07;;;18.40;99.90;;;;;;5121142;28;20217;-79
2023/07/20 04:27:33;;;;;;;3.23;1.83;;;18.50;99.90;;;;;;5133532;28;20232;-79
2023/07/20 04:30:02;;;;;;;2.87;2.00;;;18.50;99.90;;;;;;5133938;28;20564;-79
2023/07/20 04:32:33;;;;;;;2.73;1.90;;;18.50;99.90;;;;;;5133616;28;20216;-78
2023/07/20 04:35:08;;;;;;;4.23;2.20;;;18.50;99.90;;;;;;5134212;28;20212;-79
2023/07/20 04:37:36;;;;;;;4.33;1.80;;;18.50;99.90;;;;;;5133822;28;20206;-78
2023/07/20 04:40:08;;;;;;;2.00;1.73;;;18.50;99.90;;;;;;5133730;28;20232;-78
2023/07/20 04:42:36;;;;;;;2.83;2.27;;;18.70;99.90;;;;;;5130900;27;20727;-78
2023/07/20 04:45:05;;;;;;;3.87;1.97;;;18.70;99.90;;;;;;5137959;27;20655;-79
2023/07/20 04:47:33;;;;;;;5.17;2.17;;;18.80;99.90;;;;;;5121508;27;20202;-78
2023/07/20 04:50:01;;;;;;;3.87;2.10;;;18.80;99.90;;;;;;5117070;28;20255;-80
2023/07/20 04:52:29;;;;;;;4.10;2.20;;;18.90;99.90;;;;;;5116674;28;20263;-80
2023/07/20 04:55:11;;;;;;;3.70;1.90;;;18.90;99.90;;;;;;5118580;28;20202;-79
2023/07/20 04:57:39;;;;;;;3.20;1.80;;;18.90;99.90;;;;;;5120143;28;20245;-78
2023/07/20 05:00:10;;;;;;;5.10;2.00;;;19.00;99.90;;;;;;5121430;28;20263;-79
2023/07/20 05:02:38;;;;;;;4.40;2.30;;;19.00;99.90;;;;;;5122177;27;20242;-80
2023/07/20 05:05:07;;;;;;;3.43;2.10;;;19.00;99.90;;;;;;5120394;28;20206;-78
2023/07/20 05:07:35;;;;;;;5.37;2.10;;;19.00;99.90;;;;;;5119910;28;20704;-79
2023/07/20 05:10:03;;;;;;;4.70;2.27;;;19.00;99.90;;;;;;5116669;28;20230;-80
2023/07/20 05:12:33;;;;;;;4.97;2.20;;;19.00;99.90;;;;;;5125534;27;20202;-80
2023/07/20 05:15:01;;;;;;;4.23;2.00;;;19.00;99.90;;;;;;5141295;27;20217;-78
2023/07/20 05:17:30;;;;;;;5.00;2.13;;;18.90;99.90;;;;;;5142271;27;20253;-78
2023/07/20 05:19:58;;;;;;;2.40;1.90;;;18.90;99.90;;;;;;5143247;27;20201;-78
2023/07/20 05:22:26;;;;;;;6.03;2.20;;;18.80;99.90;;;;;;5138279;27;20233;-79
2023/07/20 05:24:54;;;;;;;2.80;2.17;;;18.80;99.90;;;;;;5134321;28;20222;-78
2023/07/20 05:27:22;;;;;;;3.17;2.03;;;18.80;99.90;;;;;;5135975;28;20193;-76
2023/07/20 05:29:52;;;;;;;3.50;2.00;;;18.80;99.90;;;;;;5146624;27;20279;-79
2023/07/20 05:32:23;;;;;;;4.80;1.90;;;18.80;99.90;;;;;;5150625;27;20213;-79
2023/07/20 05:34:54;;;;;;;3.30;2.10;;;18.90;99.90;;;;;;5144189;27;20216;-79
2023/07/20 05:37:22;;;;;;;2.77;1.93;;;19.00;99.90;;;;;;5137834;27;20216;-80
2023/07/20 05:39:50;;;;;;;6.60;2.00;;;19.00;99.90;;;;;;5137723;27;20205;-80
2023/07/20 05:42:18;;;;;;;4.10;2.20;;;19.00;99.90;;;;;;5136419;27;20225;-79
2023/07/20 05:44:48;;;;;;;3.23;2.10;;;19.00;99.90;;;;;;5127388;27;20217;-77
2023/07/20 05:47:17;;;;;;;5.40;1.97;;;19.10;99.90;;;;;;5133920;27;20218;-79
2023/07/20 05:49:45;;;;;;;2.93;2.13;;;19.10;99.90;;;;;;5114276;28;20275;-78
2023/07/20 05:52:14;;;;;;;5.57;2.20;;;19.00;99.90;;;;;;5116609;28;20630;-78
2023/07/20 05:54:42;;;;;;;4.10;1.93;;;19.10;99.90;;;;;;5116415;28;20206;-78
2023/07/20 05:57:11;;;;;;;2.50;1.70;;;19.10;99.90;;;;;;5127829;27;20613;-79
2023/07/20 05:59:40;;;;;;;3.37;2.10;;;19.20;99.90;;;;;;5137362;27;20273;-78
2023/07/20 06:02:08;;;;;;;3.83;1.80;;;19.20;99.50;;;;;;5136400;27;20687;-78
2023/07/20 06:04:39;;;;;;;4.53;2.07;;;19.20;99.60;;;;;;5136515;27;20205;-79
2023/07/20 06:07:08;;;;;;;3.53;2.07;;;19.30;99.90;;;;;;5134651;27;20209;-79
2023/07/20 06:09:36;;;;;;;3.80;2.20;;;19.60;99.90;;;;;;5135869;27;20225;-79
2023/07/20 06:12:05;;;;;;;2.00;1.80;;;19.80;99.20;;;;;;5136593;27;20229;-79
2023/07/20 06:14:33;;;;;;;3.07;1.90;;;19.90;98.70;;;;;;5137480;27;20655;-80
2023/07/20 06:17:01;;;;;;;4.00;1.90;;;20.10;99.20;;;;;;5136970;27;20209;-80
2023/07/20 06:19:30;;;;;;;4.70;2.10;;;20.40;99.20;;;;;;5136511;27;20584;-79
2023/07/20 06:22:00;;;;;;;4.30;2.10;;;20.60;97.30;;;;;;5135499;27;20651;-80
2023/07/20 06:24:28;;;;;;;5.07;2.13;;;20.70;96.70;;;;;;5136493;27;20206;-77
2023/07/20 06:26:56;;;;;;;2.27;1.87;;;20.60;96.40;;;;;;5135362;27;20197;-78
2023/07/20 06:29:24;;;;;;;4.97;2.13;;;20.50;96.10;;;;;;5135339;27;20257;-80
2023/07/20 06:31:52;;;;;;;3.80;2.13;;;20.60;96.60;;;;;;5134242;27;20245;-79
2023/07/20 06:34:21;;;;;;;3.57;2.33;;;20.40;96.20;;;;;;5135938;27;20250;-79
2023/07/20 06:36:51;;;;;;;4.33;2.00;;;20.60;96.30;;;;;;5136032;27;20205;-79
2023/07/20 06:39:21;;;;;;;3.63;2.00;;;21.00;95.30;;;;;;5124505;27;20247;-80
2023/07/20 06:41:52;;;;;;;2.70;2.10;;;21.80;93.60;;;;;;5117137;28;20206;-76
2023/07/20 06:44:22;;;;;;;5.30;2.00;;;22.40;91.50;;;;;;5115868;28;20210;-81
2023/07/20 06:46:51;;;;;;;4.03;2.10;;;22.90;91.40;;;;;;5115142;27;20210;-78
2023/07/20 06:49:26;;;;;;;2.87;2.03;;;23.40;85.10;;;;;;5115627;28;20680;-81
2023/07/20 06:51:54;;;;;;;4.50;1.90;;;23.30;83.50;;;;;;5116636;28;20664;-81
2023/07/20 06:54:24;;;;;;;6.30;2.10;;;23.80;82.70;;;;;;5114737;27;20241;-81
2023/07/20 06:56:52;;;;;;;5.00;2.00;;;24.30;77.10;;;;;;5135327;27;20216;-80
2023/07/20 06:59:24;;;;;;;2.73;1.83;;;25.10;76.30;;;;;;5137418;27;20202;-81
2023/07/20 07:01:52;;;;;;;3.17;2.10;;;25.70;72.00;;;;;;5121194;27;20210;-80
2023/07/20 07:04:20;;;;;;;2.78;2.00;;;26.10;68.00;;;;;;5119779;27;20586;-82
2023/07/20 07:06:49;;;;;;;3.10;2.03;;;26.40;64.20;;;;;;5117506;28;20580;-83
2023/07/20 07:09:17;;;;;;;3.13;1.77;;;26.20;64.20;;;;;;5117575;28;20213;-83
2023/07/20 07:11:47;;;;;;;7.43;1.80;;;26.60;65.10;;;;;;5119537;28;20210;-81
2023/07/20 07:14:15;;;;;;;5.15;2.10;;;27.40;60.20;;;;;;5138147;27;20655;-82
2023/07/20 07:16:43;;;;;;;3.35;1.90;;;28.00;54.30;;;;;;5141319;27;20205;-84
2023/07/20 07:19:12;;;;;;;2.95;1.80;;;27.50;54.40;;;;;;5139783;27;20262;-80
2023/07/20 07:21:40;;;;;;;5.20;1.77;;;26.70;54.30;;;;;;5139476;27;20209;-78
2023/07/20 07:24:09;;;;;;;2.30;1.80;;;26.50;56.50;;;;;;5136138;27;20589;-80
2023/07/20 07:26:38;;;;;;;3.73;1.47;;;26.00;56.20;;;;;;5136834;27;20690;-81
2023/07/20 07:29:08;;;;;;;4.00;1.80;;;25.70;55.90;;;;;;5136430;27;20226;-79
2023/07/20 07:31:36;;;;;;;3.03;1.77;;;25.30;56.40;;;;;;5135442;27;20288;-80
2023/07/20 07:34:05;;;;;;;3.27;1.87;;;24.90;57.60;;;;;;5137798;27;20274;-79
2023/07/20 07:36:34;;;;;;;2.33;1.67;;;24.70;58.30;;;;;;5137638;27;20232;-79
2023/07/20 07:39:02;;;;;;;4.00;1.73;;;24.40;57.40;;;;;;5114797;28;20252;-79
2023/07/20 07:41:51;;;;;;;3.10;1.83;;;24.50;56.70;;;;;;5132502;27;20205;-77
2023/07/20 07:44:22;;;;;;;3.33;1.90;;;23.80;59.10;;;;;;5138082;27;20240;-79
2023/07/20 07:46:50;;;;;;;3.00;1.60;;;23.80;58.50;;;;;;5138281;27;20655;-78
2023/07/20 07:49:19;;;;;;;3.27;1.87;;;23.60;60.50;;;;;;5139917;27;20727;-80
2023/07/20 07:51:48;;;;;;;2.27;1.73;;;24.00;62.50;;;;;;5124741;27;20233;-79
2023/07/20 07:54:16;;;;;;;3.00;1.90;;;23.90;60.30;;;;;;5114921;28;20619;-79
2023/07/20 07:56:45;;;;;;;2.50;1.80;;;23.80;61.00;;;;;;5104810;28;20206;-78
2023/07/20 07:59:14;;;;;;;2.33;1.83;;;23.60;61.70;;;;;;5128596;28;20255;-79
2023/07/20 08:01:43;;;;;;;2.97;1.90;;;23.40;62.00;;;;;;5134438;28;20201;-77
2023/07/20 08:04:11;;;;;;;2.37;1.73;;;23.60;63.10;;;;;;5133601;28;20209;-78
2023/07/20 08:06:40;;;;;;;3.50;2.00;;;23.90;60.30;;;;;;5133953;28;20220;-79
2023/07/20 08:09:08;;;;;;;2.77;1.70;;;23.80;59.10;;;;;;5133559;28;20202;-80
2023/07/20 08:11:37;;;;;;;2.17;1.50;;;23.80;61.00;;;;;;5118012;28;20221;-79
2023/07/20 08:14:05;;;;;;;2.83;1.70;;;23.90;56.40;;;;;;5113138;28;20202;-80
2023/07/20 08:16:34;;;;;;;3.00;1.80;;;23.50;55.80;;;;;;5127676;28;20569;-79
2023/07/20 08:19:03;;;;;;;1.93;1.60;;;23.80;57.40;;;;;;5139374;27;20207;-78
2023/07/20 08:21:32;;;;;;;4.83;1.83;;;24.30;57.10;;;;;;5141494;27;20200;-79
2023/07/20 08:24:00;;;;;;;2.10;1.50;;;24.80;56.60;;;;;;5140575;27;20226;-80
2023/07/20 08:26:28;;;;;;;4.03;1.63;;;25.30;54.90;;;;;;5142192;27;20197;-80
2023/07/20 08:28:56;;;;;;;3.77;1.83;;;24.80;52.00;;;;;;5137903;27;20213;-81
2023/07/20 08:31:24;;;;;;;2.33;1.80;;;25.40;52.40;;;;;;5138665;27;20278;-83
2023/07/20 08:33:53;;;;;;;2.30;1.70;;;26.00;52.40;;;;;;5138796;27;20254;-79
2023/07/20 08:36:22;;;;;;;3.67;1.60;;;26.80;50.30;;;;;;5136811;27;20202;-81
2023/07/20 08:38:52;;;;;;;4.00;1.80;;;27.50;48.40;;;;;;5123560;28;20206;-83
2023/07/20 08:41:20;;;;;;;3.25;1.70;;;29.20;45.50;;;;;;5118613;28;20776;-83
2023/07/20 08:43:49;;;;;;;35.78;4.63;;;29.60;42.20;;;;;;5117362;28;20238;-81
2023/07/20 08:46:17;;;;;;;4.10;1.60;;;29.50;42.00;;;;;;5129546;27;20656;-84
2023/07/20 08:48:46;;;;;;;7.20;2.00;;;29.60;40.70;;;;;;5138751;27;20209;-83
2023/07/20 08:51:16;;;;;;;3.83;1.80;;;29.50;42.00;;;;;;5141309;27;20217;-82
2023/07/20 08:53:48;;;;;;;7.78;1.92;;;29.60;39.60;;;;;;5141252;27;20209;-85
2023/07/20 08:56:17;;;;;;;1.50;1.40;;;29.60;38.90;;;;;;5144821;27;20659;-83
2023/07/20 08:58:46;;;;;;;5.07;1.60;;;29.70;36.60;;;;;;5130666;27;20202;-82
2023/07/20 09:01:15;;;;;;;3.28;1.83;;;29.10;38.20;;;;;;5140549;27;20258;-82
2023/07/20 09:03:46;;;;;;;3.38;1.70;;;28.60;39.20;;;;;;5139606;27;20690;-79
2023/07/20 09:06:14;;;;;;;4.60;1.80;;;27.90;41.90;;;;;;5139186;27;20205;-78
2023/07/20 09:08:45;;;;;;;4.38;1.50;;;27.10;42.40;;;;;;5145465;27;20205;-81
2023/07/20 09:11:14;;;;;;;3.38;1.70;;;26.40;41.50;;;;;;5142006;27;20214;-79
2023/07/20 09:13:43;;;;;;;2.08;1.60;;;26.00;44.10;;;;;;5134359;27;20206;-79
2023/07/20 09:16:15;;;;;;;2.40;1.70;;;25.50;43.40;;;;;;5144416;27;20671;-79
2023/07/20 09:18:43;;;;;;;2.43;1.60;;;25.70;45.40;;;;;;5141335;27;20205;-76
2023/07/20 09:21:11;;;;;;;5.50;1.90;;;25.60;43.50;;;;;;5147445;27;20219;-79
2023/07/20 09:23:40;;;;;;;8.47;1.80;;;25.40;45.40;;;;;;5144576;27;20226;-79
2023/07/20 09:26:15;;;;;;;2.87;1.70;;;25.20;47.60;;;;;;5121231;28;20206;-82
2023/07/20 09:28:44;;;;;;;3.07;1.90;;;25.20;46.20;;;;;;5124456;28;20693;-80
2023/07/20 09:31:18;;;;;;;3.07;1.80;;;25.00;46.20;;;;;;5116973;28;20283;-78
2023/07/20 09:33:48;;;;;;;2.03;1.80;;;24.70;47.80;;;;;;5123942;28;20206;-79
2023/07/20 09:36:19;;;;;;;3.27;1.63;;;24.70;49.20;;;;;;5119193;28;20740;-79
2023/07/20 09:39:09;;;;;;;2.13;1.67;;;24.50;48.40;;;;;;5120368;27;20269;-79
2023/07/20 09:41:46;;;;;;;2.87;1.70;;;24.30;49.80;;;;;;5139054;27;20205;-80
2023/07/20 09:44:16;;;;;;;4.07;1.70;;;24.20;49.00;;;;;;5139770;27;20209;-78
2023/07/20 09:46:48;;;;;;;3.00;1.63;;;24.60;50.20;;;;;;5130098;27;20194;-77
2023/07/20 09:49:19;;;;;;;2.50;1.50;;;25.20;50.90;;;;;;5137127;27;20205;-80
2023/07/20 09:51:51;;;;;;;4.30;1.73;;;25.60;47.20;;;;;;5129759;27;20225;-79
2023/07/20 09:54:22;;;;;;;2.83;1.53;;;25.70;48.30;;;;;;5144061;27;20297;-80
2023/07/20 09:56:52;;;;;;;2.83;1.60;;;25.50;47.00;;;;;;5141954;27;20249;-80
2023/07/20 09:59:20;;;;;;;2.10;1.90;;;25.20;47.30;;;;;;5143492;27;20205;-82
2023/07/20 10:01:52;;;;;;;2.53;1.90;;;25.00;49.00;;;;;;5138018;27;20242;-82
2023/07/20 10:04:22;;;;;;;4.93;2.00;;;24.90;49.30;;;;;;5136284;27;20248;-79
2023/07/20 10:06:52;;;;;;;4.73;2.27;;;24.70;50.60;;;;;;5138073;27;20210;-82
2023/07/20 10:09:23;;;;;;;4.10;1.90;;;24.70;52.40;;;;;;5136459;27;20214;-80
2023/07/20 10:11:54;;;;;;;6.57;2.00;;;24.40;49.60;;;;;;5135625;27;20221;-78
2023/07/20 10:14:30;;;;;;;6.17;2.10;;;24.20;48.80;;;;;;5116248;28;20197;-82
2023/07/20 10:17:01;;;;;;;6.07;2.10;;;24.10;49.50;;;;;;5117337;28;20255;-78
2023/07/20 10:19:35;;;;;;;4.20;1.80;;;24.70;52.50;;;;;;5115842;28;20206;-80
2023/07/20 10:22:11;;;;;;;4.57;2.00;;;25.20;48.60;;;;;;5117031;28;20205;-80
2023/07/20 10:24:40;;;;;;;3.13;1.70;;;25.20;50.10;;;;;;5117893;28;20705;-79
2023/07/20 10:27:10;;;;;;;2.93;1.70;;;25.20;50.10;;;;;;5116426;28;20210;-78
2023/07/20 10:29:40;;;;;;;5.67;1.80;;;25.10;49.40;;;;;;5122794;27;20233;-81
2023/07/20 10:32:09;;;;;;;3.30;1.73;;;25.30;48.20;;;;;;5136509;27;20272;-80
2023/07/20 10:34:38;;;;;;;4.07;1.70;;;25.80;47.40;;;;;;5136295;27;20266;-82
2023/07/20 10:37:06;;;;;;;3.00;1.60;;;26.30;47.10;;;;;;5129857;27;20249;-79
2023/07/20 10:39:35;;;;;;;2.43;1.90;;;26.70;46.80;;;;;;5128235;27;20237;-81
2023/07/20 10:42:04;;;;;;;1.90;1.60;;;26.80;46.30;;;;;;5136401;27;20201;-81
2023/07/20 10:44:33;;;;;;;2.90;1.73;;;26.30;43.90;;;;;;5135915;27;20205;-80
2023/07/20 10:47:02;;;;;;;4.17;1.80;;;25.80;47.90;;;;;;5134708;27;20213;-80
2023/07/20 10:49:34;;;;;;;4.07;1.80;;;25.40;48.90;;;;;;5138133;27;20194;-81
2023/07/20 10:52:06;;;;;;;3.40;1.90;;;25.30;47.60;;;;;;5143105;27;20220;-82
2023/07/20 10:54:36;;;;;;;3.30;1.87;;;24.80;46.90;;;;;;5134604;27;20210;-80
2023/07/20 10:57:29;;;;;;;5.57;2.00;;;24.40;48.60;;;;;;5135908;27;20246;-79
2023/07/20 11:00:12;;;;;;;2.63;1.70;;;24.30;48.10;;;;;;5136153;27;20202;-78
2023/07/20 11:02:47;;;;;;;6.83;2.17;;;24.00;48.00;;;;;;5125366;27;20229;-81
2023/07/20 11:05:38;;;;;;;3.87;1.93;;;24.00;53.40;;;;;;5137775;27;20232;-79
2023/07/20 11:08:11;;;;;;;4.40;1.80;;;24.00;55.80;;;;;;5111286;28;20690;-78
2023/07/20 11:10:39;;;;;;;2.93;1.80;;;24.00;52.80;;;;;;5135044;27;20213;-78
2023/07/20 11:13:22;;;;;;;3.83;1.80;;;24.10;53.30;;;;;;5137623;27;20573;-76
2023/07/20 11:16:05;;;;;;;3.50;1.80;;;24.10;51.70;;;;;;5129337;27;20280;-79
2023/07/20 11:18:39;;;;;;;2.60;1.80;;;24.00;51.90;;;;;;5137933;27;20236;-80
2023/07/20 11:21:10;;;;;;;2.83;1.97;;;24.10;53.00;;;;;;5134914;27;20223;-80
2023/07/20 11:23:40;;;;;;;3.27;2.00;;;24.20;53.20;;;;;;5131728;27;20711;-76
2023/07/20 11:26:08;;;;;;;4.63;1.90;;;24.50;52.70;;;;;;5136314;27;20280;-79
2023/07/20 11:28:37;;;;;;;4.40;1.97;;;24.50;53.20;;;;;;5136061;27;20214;-80
2023/07/20 11:31:06;;;;;;;4.20;2.00;;;24.50;50.90;;;;;;5132545;27;20313;-79
2023/07/20 11:33:34;;;;;;;4.07;1.93;;;24.70;50.50;;;;;;5130866;27;20225;-79
2023/07/20 11:36:03;;;;;;;3.17;1.80;;;24.80;53.20;;;;;;5137149;27;20197;-80
2023/07/20 11:38:51;;;;;;;2.90;2.00;;;25.00;52.00;;;;;;5131794;27;20201;-79
2023/07/20 11:41:21;;;;;;;3.87;1.80;;;25.20;50.70;;;;;;5135794;27;20208;-78
2023/07/20 11:43:49;;;;;;;4.40;2.00;;;25.90;53.60;;;;;;5134810;27;20240;-78
2023/07/20 11:46:19;;;;;;;6.63;2.20;;;26.60;50.80;;;;;;5134839;27;20198;-80
2023/07/20 11:48:47;;;;;;;2.60;2.00;;;26.80;46.30;;;;;;5128727;27;20254;-80
2023/07/20 11:51:16;;;;;;;4.60;1.87;;;26.60;46.00;;;;;;5133951;27;20206;-78
2023/07/20 11:53:46;;;;;;;3.17;2.00;;;27.30;51.10;;;;;;5125770;27;20229;-78
2023/07/20 11:56:14;;;;;;;3.23;1.67;;;27.30;45.40;;;;;;5134131;27;20289;-81
2023/07/20 11:58:46;;;;;;;4.30;1.90;;;27.00;48.00;;;;;;5133086;28;20214;-78
2023/07/20 12:01:14;;;;;;;4.90;1.90;;;26.50;45.20;;;;;;5132869;28;20670;-79
2023/07/20 12:03:44;;;;;;;5.87;1.83;;;26.10;46.20;;;;;;5133517;28;20201;-79
2023/07/20 12:06:14;;;;;;;3.20;2.13;;;25.60;47.80;;;;;;5130336;28;20288;-78
2023/07/20 12:08:44;;;;;;;2.97;1.90;;;25.20;48.20;;;;;;5134436;28;20201;-80
2023/07/20 12:11:12;;;;;;;5.53;1.70;;;25.20;51.10;;;;;;5133415;28;20246;-80
2023/07/20 12:13:43;;;;;;;1.93;1.53;;;25.10;50.40;;;;;;5131324;28;20225;-81
2023/07/20 12:16:13;;;;;;;4.07;2.00;;;25.20;50.50;;;;;;5133380;28;20206;-79
2023/07/20 12:18:41;;;;;;;3.03;1.80;;;25.50;49.50;;;;;;5133278;28;20212;-80
2023/07/20 12:21:12;;;;;;;5.37;1.73;;;25.60;50.10;;;;;;5131987;28;20201;-80
2023/07/20 12:23:41;;;;;;;6.63;2.00;;;25.60;50.00;;;;;;5133552;28;20224;-79
2023/07/20 12:26:10;;;;;;;3.17;1.90;;;25.50;51.60;;;;;;5132778;28;20202;-78
2023/07/20 12:28:42;;;;;;;4.07;2.00;;;25.70;49.10;;;;;;5130808;28;20205;-77
2023/07/20 12:31:13;;;;;;;3.47;1.80;;;26.40;49.90;;;;;;5135949;28;20206;-80
2023/07/20 12:33:42;;;;;;;2.23;1.70;;;27.00;49.50;;;;;;5134333;28;20217;-79
2023/07/20 12:36:11;;;;;;;3.07;1.90;;;27.10;48.10;;;;;;5131105;28;20284;-81
2023/07/20 12:38:41;;;;;;;3.53;1.70;;;27.40;48.70;;;;;;5132202;28;20250;-79
2023/07/20 12:41:13;;;;;;;4.33;1.50;;;26.90;45.50;;;;;;5135702;28;20240;-79
2023/07/20 12:43:41;;;;;;;3.80;1.80;;;26.60;46.20;;;;;;5136737;28;20224;-81
2023/07/20 12:46:11;;;;;;;2.73;1.70;;;26.50;46.00;;;;;;5136070;28;20198;-79
2023/07/20 12:48:41;;;;;;;2.17;1.60;;;26.10;47.60;;;;;;5136899;28;20663;-78
2023/07/20 12:51:15;;;;;;;3.40;1.97;;;26.00;50.50;;;;;;5138347;28;20190;-79
2023/07/20 12:53:43;;;;;;;4.10;1.90;;;25.70;49.10;;;;;;5135151;28;20275;-76
2023/07/20 12:56:11;;;;;;;4.47;1.80;;;26.20;48.00;;;;;;5131817;28;20202;-78
2023/07/20 12:58:42;;;;;;;5.00;2.03;;;26.70;48.40;;;;;;5136992;28;20206;-77